createdAt,value
2019-03-20T00:01:44.103Z,31.60
2019-03-20T00:04:16.636Z,34.57
2019-03-20T00:06:48.903Z,35.17
2019-03-20T00:09:20.957Z,33.90
2019-03-20T00:11:53.236Z,41.17
2019-03-20T00:14:25.764Z,33.20
2019-03-20T00:16:58.086Z,38.93
2019-03-20T00:19:30.591Z,42.07
2019-03-20T00:22:03.031Z,33.13
2019-03-20T00:24:35.405Z,37.13
2019-03-20T00:27:08.082Z,34.60
2019-03-20T00:29:40.762Z,32.70
2019-03-20T00:32:13.342Z,41.07
2019-03-20T00:34:45.608Z,38.57
2019-03-20T00:37:18.183Z,43.10
2019-03-20T00:39:50.556Z,35.03
2019-03-20T00:42:22.518Z,43.47
2019-03-20T00:44:54.788Z,40.03
2019-03-20T00:47:26.742Z,29.80
2019-03-20T00:49:59.027Z,38.87
2019-03-20T00:52:31.493Z,42.57
2019-03-20T00:55:03.416Z,49.30
2019-03-20T00:57:35.836Z,134.33
2019-03-20T01:00:27.664Z,170.13
2019-03-20T01:03:00.132Z,126.83
2019-03-20T01:05:33.837Z,106.10
2019-03-20T01:08:06.208Z,104.23
2019-03-20T01:10:38.577Z,58.87
2019-03-20T01:13:11.262Z,52.10
2019-03-20T01:15:43.539Z,65.40
2019-03-20T01:18:15.899Z,55.43
2019-03-20T01:20:48.270Z,49.13
2019-03-20T01:23:20.233Z,42.13
2019-03-20T01:25:52.614Z,46.10
2019-03-20T01:28:24.980Z,46.03
2019-03-20T01:30:57.452Z,42.53
2019-03-20T01:33:29.822Z,39.80
2019-03-20T01:36:02.195Z,42.03
2019-03-20T01:38:34.672Z,48.20
2019-03-20T01:41:07.041Z,86.13
2019-03-20T01:43:39.110Z,100.33
2019-03-20T01:46:11.376Z,67.63
2019-03-20T01:48:43.343Z,60.27
2019-03-20T01:51:23.491Z,57.43
2019-03-20T01:53:55.867Z,43.90
2019-03-20T01:56:29.366Z,42.40
2019-03-20T01:59:02.043Z,59.83
2019-03-20T02:01:33.973Z,61.40
2019-03-20T02:04:06.477Z,63.67
2019-03-20T02:06:39.003Z,55.67
2019-03-20T02:09:11.428Z,47.03
2019-03-20T02:11:43.805Z,57.50
2019-03-20T02:14:16.169Z,53.20
2019-03-20T02:16:48.857Z,52.67
2019-03-20T02:19:21.138Z,43.07
2019-03-20T02:21:53.067Z,46.37
2019-03-20T02:24:25.661Z,39.30
2019-03-20T02:26:58.031Z,37.80
2019-03-20T02:29:30.757Z,46.63
2019-03-20T02:32:02.633Z,49.03
2019-03-20T02:34:35.052Z,46.00
2019-03-20T02:37:06.976Z,51.10
2019-03-20T02:39:39.285Z,41.57
2019-03-20T02:42:11.648Z,41.20
2019-03-20T02:44:44.019Z,47.20
2019-03-20T02:47:15.940Z,39.90
2019-03-20T02:49:48.515Z,47.30
2019-03-20T02:52:20.831Z,40.67
2019-03-20T02:54:53.203Z,43.37
2019-03-20T02:57:25.131Z,45.77
2019-03-20T02:59:57.844Z,43.40
2019-03-20T03:02:30.213Z,38.43
2019-03-20T03:05:02.196Z,38.13
2019-03-20T03:07:34.345Z,34.43
2019-03-20T03:10:10.909Z,38.83
2019-03-20T03:12:42.838Z,43.87
2019-03-20T03:15:15.704Z,44.03
2019-03-20T03:17:47.622Z,35.37
2019-03-20T03:20:19.994Z,39.77
2019-03-20T03:22:52.620Z,43.97
2019-03-20T03:25:24.624Z,41.10
2019-03-20T03:27:56.903Z,43.53
2019-03-20T03:30:29.380Z,44.47
2019-03-20T03:33:01.310Z,40.93
2019-03-20T03:35:33.270Z,41.03
2019-03-20T03:38:05.571Z,42.20
2019-03-20T03:40:37.944Z,39.90
2019-03-20T03:43:10.325Z,46.00
2019-03-20T03:45:42.688Z,43.73
2019-03-20T03:48:15.066Z,41.30
2019-03-20T03:50:48.398Z,38.57
2019-03-20T03:53:21.891Z,33.30
2019-03-20T03:55:54.224Z,40.67
2019-03-20T03:58:26.599Z,34.10
2019-03-20T04:00:58.970Z,36.67
2019-03-20T04:03:31.342Z,35.77
2019-03-20T04:06:03.713Z,43.50
2019-03-20T04:08:36.090Z,45.37
2019-03-20T04:11:08.461Z,43.57
2019-03-20T04:13:41.038Z,41.73
2019-03-20T04:16:13.611Z,43.30
2019-03-20T04:18:46.082Z,39.10
2019-03-20T04:21:18.455Z,44.53
2019-03-20T04:23:51.644Z,39.67
2019-03-20T04:26:24.022Z,41.23
2019-03-20T04:28:56.398Z,41.73
2019-03-20T04:31:28.870Z,42.80
2019-03-20T04:34:01.342Z,40.50
2019-03-20T04:36:33.714Z,44.60
2019-03-20T04:39:08.179Z,39.23
2019-03-20T04:41:40.503Z,54.87
2019-03-20T04:44:13.077Z,68.43
2019-03-20T04:46:45.658Z,44.67
2019-03-20T04:49:18.132Z,44.67
2019-03-20T04:51:50.873Z,43.83
2019-03-20T04:54:23.356Z,37.20
2019-03-20T04:56:56.222Z,39.27
2019-03-20T04:59:28.846Z,39.23
2019-03-20T05:02:01.522Z,36.23
2019-03-20T05:04:33.896Z,42.10
2019-03-20T05:07:06.377Z,43.40
2019-03-20T05:09:38.854Z,44.13
2019-03-20T05:12:11.215Z,42.77
2019-03-20T05:14:43.688Z,38.77
2019-03-20T05:17:16.068Z,47.57
2019-03-20T05:19:48.542Z,43.67
2019-03-20T05:22:20.909Z,50.20
2019-03-20T05:24:53.385Z,40.17
2019-03-20T05:27:25.861Z,46.67
2019-03-20T05:29:58.231Z,43.37
2019-03-20T05:32:30.605Z,52.13
2019-03-20T05:35:02.975Z,37.43
2019-03-20T05:37:35.347Z,38.70
2019-03-20T05:40:17.179Z,44.00
2019-03-20T05:42:49.518Z,47.97
2019-03-20T05:45:21.998Z,55.53
2019-03-20T05:47:54.466Z,45.27
2019-03-20T05:50:26.834Z,42.40
2019-03-20T05:52:59.256Z,38.60
2019-03-20T05:55:31.779Z,46.87
2019-03-20T05:58:04.155Z,65.20
2019-03-20T06:00:37.345Z,63.00
2019-03-20T06:03:09.518Z,68.93
2019-03-20T06:05:42.086Z,55.47
2019-03-20T06:08:14.454Z,60.53
2019-03-20T06:10:46.831Z,51.77
2019-03-20T06:13:19.203Z,71.50
2019-03-20T06:15:51.166Z,59.43
2019-03-20T06:18:23.742Z,47.30
2019-03-20T06:20:56.122Z,40.83
2019-03-20T06:23:28.039Z,42.30
2019-03-20T06:26:00.659Z,40.07
2019-03-20T06:28:33.029Z,39.73
2019-03-20T06:31:05.501Z,38.60
2019-03-20T06:33:38.691Z,50.43
2019-03-20T06:36:11.370Z,34.83
2019-03-20T06:38:43.523Z,43.07
2019-03-20T06:41:15.914Z,36.20
2019-03-20T06:43:48.279Z,45.87
2019-03-20T06:46:22.525Z,37.17
2019-03-20T06:48:56.610Z,36.27
2019-03-20T06:51:29.190Z,36.20
2019-03-20T06:54:03.502Z,29.80
2019-03-20T06:56:35.459Z,30.00
2019-03-20T06:59:32.102Z,37.40
2019-03-20T07:02:07.945Z,31.53
2019-03-20T07:05:07.450Z,31.90
2019-03-20T07:07:44.387Z,33.03
2019-03-20T07:10:33.903Z,34.77
2019-03-20T07:13:06.382Z,29.27
2019-03-20T07:15:38.965Z,30.37
2019-03-20T07:18:11.324Z,27.80
2019-03-20T07:20:43.705Z,30.33
2019-03-20T07:23:16.694Z,29.93
2019-03-20T07:25:48.650Z,28.83
2019-03-20T07:28:21.019Z,24.20
2019-03-20T07:30:53.397Z,24.57
2019-03-20T07:33:25.765Z,29.83
2019-03-20T07:35:58.142Z,27.57
2019-03-20T07:38:30.715Z,20.63
2019-03-20T07:41:03.199Z,25.77
2019-03-20T07:43:36.588Z,28.23
2019-03-20T07:46:08.966Z,27.97
2019-03-20T07:48:41.338Z,26.83
2019-03-20T07:51:13.902Z,30.13
2019-03-20T07:53:46.277Z,25.40
2019-03-20T07:56:18.757Z,27.10
2019-03-20T07:58:51.117Z,23.50
2019-03-20T08:01:23.073Z,24.13
2019-03-20T08:03:56.123Z,26.37
2019-03-20T08:06:28.543Z,26.07
2019-03-20T08:09:00.924Z,25.40
2019-03-20T08:11:34.191Z,21.40
2019-03-20T08:14:06.547Z,14.57
2019-03-20T08:16:38.961Z,22.03
2019-03-20T08:19:10.877Z,19.90
2019-03-20T08:21:43.289Z,23.27
2019-03-20T08:24:15.671Z,22.70
2019-03-20T08:26:48.043Z,19.87
2019-03-20T08:29:20.519Z,27.13
2019-03-20T08:31:52.886Z,24.33
2019-03-20T08:34:25.769Z,21.50
2019-03-20T08:36:58.131Z,23.63
2019-03-20T08:39:30.401Z,18.20
2019-03-20T08:42:02.786Z,24.00
2019-03-20T08:44:36.277Z,20.07
2019-03-20T08:47:08.656Z,21.83
2019-03-20T08:49:41.082Z,19.37
2019-03-20T08:52:13.397Z,20.93
2019-03-20T08:54:45.755Z,17.70
2019-03-20T08:57:18.131Z,11.23
2019-03-20T08:59:50.516Z,20.63
2019-03-20T09:02:23.900Z,16.63
2019-03-20T09:04:56.174Z,16.63
2019-03-20T09:07:28.551Z,15.83
2019-03-20T09:10:00.913Z,15.43
2019-03-20T09:12:32.868Z,17.47
2019-03-20T09:15:06.380Z,13.00
2019-03-20T09:17:39.169Z,22.70
2019-03-20T09:20:18.194Z,16.07
2019-03-20T09:22:50.659Z,14.07
2019-03-20T09:25:24.298Z,15.17
2019-03-20T09:27:56.637Z,13.87
2019-03-20T09:30:30.699Z,13.10
2019-03-20T09:33:03.025Z,16.17
2019-03-20T09:35:35.971Z,15.50
2019-03-20T09:38:08.270Z,12.57
2019-03-20T09:40:40.638Z,9.37
2019-03-20T09:43:13.127Z,11.87
2019-03-20T09:45:45.489Z,12.73
2019-03-20T09:48:17.874Z,9.03
2019-03-20T09:50:50.245Z,10.43
2019-03-20T09:53:22.616Z,9.73
2019-03-20T09:55:54.986Z,8.80
2019-03-20T09:58:27.348Z,10.67
2019-03-20T10:00:59.717Z,9.83
2019-03-20T10:03:32.093Z,11.83
2019-03-20T10:06:04.475Z,6.20
2019-03-20T10:08:36.834Z,9.23
2019-03-20T10:11:09.265Z,8.63
2019-03-20T10:13:41.685Z,12.03
2019-03-20T10:16:14.058Z,13.10
2019-03-20T10:18:46.427Z,7.53
2019-03-20T10:21:18.915Z,6.87
2019-03-20T10:23:50.850Z,9.20
2019-03-20T10:26:23.240Z,6.77
2019-03-20T10:28:55.841Z,8.53
2019-03-20T10:31:28.194Z,7.00
2019-03-20T10:34:01.485Z,6.13
2019-03-20T10:36:33.847Z,8.20
2019-03-20T10:39:08.301Z,4.53
2019-03-20T10:41:40.241Z,3.93
2019-03-20T10:44:12.602Z,3.83
2019-03-20T10:46:44.973Z,4.07
2019-03-20T10:49:17.253Z,3.77
2019-03-20T10:51:49.634Z,7.37
2019-03-20T10:54:21.580Z,4.90
2019-03-20T10:56:53.547Z,4.13
2019-03-20T10:59:26.381Z,4.40
2019-03-20T11:02:00.783Z,5.40
2019-03-20T11:04:32.724Z,4.47
2019-03-20T11:07:05.281Z,6.70
2019-03-20T11:09:37.666Z,4.30
2019-03-20T11:12:10.028Z,4.60
2019-03-20T11:14:42.408Z,9.33
2019-03-20T11:17:14.778Z,9.40
2019-03-20T11:19:47.207Z,6.63
2019-03-20T11:22:20.904Z,8.47
2019-03-20T11:24:53.234Z,6.93
2019-03-20T11:27:27.760Z,5.73
2019-03-20T11:30:00.343Z,4.13
2019-03-20T11:32:32.589Z,5.57
2019-03-20T11:35:05.571Z,5.73
2019-03-20T11:37:37.943Z,6.03
2019-03-20T11:40:14.947Z,7.03
2019-03-20T11:42:47.294Z,8.80
2019-03-20T11:45:19.721Z,11.50
2019-03-20T11:47:51.686Z,7.60
2019-03-20T11:50:37.096Z,7.60
2019-03-20T11:53:11.235Z,8.50
2019-03-20T11:55:43.603Z,8.03
2019-03-20T11:58:15.987Z,8.40
2019-03-20T12:00:48.349Z,7.10
2019-03-20T12:03:20.726Z,8.00
2019-03-20T12:05:52.651Z,8.70
2019-03-20T12:08:26.684Z,10.00
2019-03-20T12:10:58.763Z,7.00
2019-03-20T12:13:32.471Z,6.20
2019-03-20T12:16:04.826Z,7.73
2019-03-20T12:18:37.511Z,7.07
2019-03-20T12:21:09.885Z,8.77
2019-03-20T12:23:42.566Z,7.53
2019-03-20T12:26:14.930Z,8.00
2019-03-20T12:28:47.302Z,6.07
2019-03-20T12:31:19.676Z,6.50
2019-03-20T12:33:52.048Z,7.97
2019-03-20T12:36:24.411Z,6.57
2019-03-20T12:38:56.887Z,6.97
2019-03-20T12:41:30.281Z,9.07
2019-03-20T12:44:02.263Z,9.40
2019-03-20T12:46:41.338Z,7.13
2019-03-20T12:49:08.641Z,7.70
2019-03-20T12:51:41.006Z,6.23
2019-03-20T12:54:13.387Z,6.67
2019-03-20T12:56:45.758Z,8.30
2019-03-20T12:59:17.709Z,5.73
2019-03-20T13:01:50.080Z,5.70
2019-03-20T13:04:22.465Z,7.27
2019-03-20T13:06:54.835Z,7.97
2019-03-20T13:09:27.196Z,4.63
2019-03-20T13:11:59.578Z,6.07
2019-03-20T13:14:31.963Z,6.87
2019-03-20T13:17:04.325Z,6.53
2019-03-20T13:19:36.477Z,5.23
2019-03-20T13:22:08.855Z,7.50
2019-03-20T13:24:41.221Z,7.47
2019-03-20T13:27:13.597Z,4.57
2019-03-20T13:29:45.974Z,7.30
2019-03-20T13:32:17.943Z,6.67
2019-03-20T13:34:50.301Z,6.27
2019-03-20T13:37:22.688Z,6.77
2019-03-20T13:39:55.052Z,5.80
2019-03-20T13:42:27.425Z,9.70
2019-03-20T13:44:59.356Z,6.10
2019-03-20T13:47:31.758Z,6.00
2019-03-20T13:50:04.428Z,7.10
2019-03-20T13:52:36.807Z,7.60
2019-03-20T13:55:12.143Z,6.40
2019-03-20T13:57:44.514Z,7.80
2019-03-20T14:00:25.186Z,5.77
2019-03-20T14:02:57.571Z,6.70
2019-03-20T14:05:29.928Z,5.67
2019-03-20T14:08:02.306Z,6.50
2019-03-20T14:10:49.410Z,6.80
2019-03-20T14:13:08.685Z,7.47
2019-03-20T14:15:40.609Z,8.57
2019-03-20T14:18:13.026Z,6.23
2019-03-20T14:20:45.412Z,5.77
2019-03-20T14:23:17.767Z,7.70
2019-03-20T14:25:50.133Z,7.20
2019-03-20T14:28:22.516Z,6.10
2019-03-20T14:30:54.888Z,7.73
2019-03-20T14:33:26.858Z,7.50
2019-03-20T14:35:59.728Z,7.03
2019-03-20T14:38:32.102Z,6.73
2019-03-20T14:41:04.275Z,6.90
2019-03-20T14:43:36.639Z,6.80
2019-03-20T14:46:09.665Z,7.63
2019-03-20T14:48:41.991Z,7.63
2019-03-20T14:51:14.363Z,6.63
2019-03-20T14:53:46.747Z,8.03
2019-03-20T14:56:18.692Z,5.20
2019-03-20T14:58:51.082Z,4.57
2019-03-20T15:01:23.498Z,5.07
2019-03-20T15:03:57.659Z,6.00
2019-03-20T15:06:30.034Z,7.23
2019-03-20T15:09:02.408Z,8.07
2019-03-20T15:11:34.884Z,8.43
2019-03-20T15:14:06.841Z,7.83
2019-03-20T15:16:39.106Z,6.30
2019-03-20T15:19:11.693Z,5.13
2019-03-20T15:21:44.059Z,6.67
2019-03-20T15:24:16.042Z,6.80
2019-03-20T15:26:48.390Z,5.40
2019-03-20T15:29:20.800Z,10.93
2019-03-20T15:31:53.190Z,10.20
2019-03-20T15:34:25.519Z,5.43
2019-03-20T15:36:58.906Z,7.53
2019-03-20T15:39:31.285Z,7.80
2019-03-20T15:42:03.647Z,14.47
2019-03-20T15:44:36.024Z,10.97
2019-03-20T15:47:08.290Z,8.20
2019-03-20T15:49:40.260Z,7.70
2019-03-20T15:52:12.180Z,10.97
2019-03-20T15:54:44.585Z,6.40
2019-03-20T15:57:17.896Z,5.17
2019-03-20T15:59:50.256Z,6.77
2019-03-20T16:02:22.624Z,6.03
2019-03-20T16:04:56.226Z,13.70
2019-03-20T16:07:28.600Z,9.50
2019-03-20T16:10:00.972Z,11.83
2019-03-20T16:12:33.353Z,16.47
2019-03-20T16:15:09.297Z,10.07
2019-03-20T16:17:41.668Z,7.23
2019-03-20T16:20:15.386Z,6.87
2019-03-20T16:22:47.761Z,10.10
2019-03-20T16:25:25.853Z,5.70
2019-03-20T16:27:58.231Z,5.57
2019-03-20T16:30:32.494Z,5.93
2019-03-20T16:33:04.821Z,6.13
2019-03-20T16:35:37.193Z,6.20
2019-03-20T16:38:09.564Z,8.07
2019-03-20T16:40:41.970Z,6.37
2019-03-20T16:43:14.296Z,7.77
2019-03-20T16:45:46.673Z,11.97
2019-03-20T16:48:19.050Z,10.43
2019-03-20T16:50:52.039Z,9.40
2019-03-20T16:53:24.406Z,10.03
2019-03-20T16:55:56.779Z,6.73
2019-03-20T16:58:28.695Z,9.63
2019-03-20T17:01:01.003Z,11.40
2019-03-20T17:03:33.389Z,8.53
2019-03-20T17:06:05.758Z,8.40
2019-03-20T17:08:37.746Z,8.97
2019-03-20T17:11:10.082Z,14.40
2019-03-20T17:13:42.464Z,15.77
2019-03-20T17:16:14.394Z,18.17
2019-03-20T17:18:48.032Z,16.40
2019-03-20T17:21:20.403Z,25.83
2019-03-20T17:23:52.778Z,40.30
2019-03-20T17:26:25.132Z,40.63
2019-03-20T17:28:57.507Z,46.50
2019-03-20T17:31:29.881Z,31.20
2019-03-20T17:34:02.251Z,23.93
2019-03-20T17:36:34.627Z,20.97
2019-03-20T17:39:10.377Z,14.10
2019-03-20T17:41:42.746Z,16.80
2019-03-20T17:44:14.711Z,17.67
2019-03-20T17:46:47.078Z,21.40
2019-03-20T17:49:19.457Z,16.63
2019-03-20T17:51:51.721Z,16.90
2019-03-20T17:54:24.195Z,15.93
2019-03-20T17:56:56.568Z,15.47
2019-03-20T17:59:28.522Z,11.23
2019-03-20T18:02:00.902Z,9.20
2019-03-20T18:04:33.202Z,10.43
2019-03-20T18:07:05.553Z,9.57
2019-03-20T18:09:37.922Z,8.27
2019-03-20T18:12:10.306Z,26.80
2019-03-20T18:14:42.669Z,18.47
2019-03-20T18:17:15.338Z,14.00
2019-03-20T18:19:47.712Z,14.40
2019-03-20T18:22:20.095Z,15.50
2019-03-20T18:24:52.276Z,20.03
2019-03-20T18:27:24.624Z,19.17
2019-03-20T18:29:56.998Z,24.60
2019-03-20T18:32:29.369Z,25.70
2019-03-20T18:35:01.331Z,30.80
2019-03-20T18:37:33.718Z,47.00
2019-03-20T18:40:13.239Z,33.50
2019-03-20T18:42:45.517Z,23.00
2019-03-20T18:45:20.887Z,22.33
2019-03-20T18:47:53.233Z,19.10
2019-03-20T18:50:26.107Z,15.47
2019-03-20T18:52:58.379Z,15.77
2019-03-20T18:55:30.831Z,14.13
2019-03-20T18:58:03.222Z,13.67
2019-03-20T19:00:36.843Z,14.53
2019-03-20T19:03:19.249Z,15.97
2019-03-20T19:06:14.550Z,15.70
2019-03-20T19:08:46.895Z,16.23
2019-03-20T19:11:19.388Z,19.73
2019-03-20T19:13:51.539Z,15.57
2019-03-20T19:16:23.521Z,20.80
2019-03-20T19:18:55.907Z,16.80
2019-03-20T19:21:28.482Z,16.53
2019-03-20T19:24:00.863Z,17.83
2019-03-20T19:26:33.327Z,23.03
2019-03-20T19:29:05.692Z,18.07
2019-03-20T19:31:38.061Z,19.20
2019-03-20T19:34:10.442Z,22.70
2019-03-20T19:36:42.811Z,14.37
2019-03-20T19:39:15.224Z,23.63
2019-03-20T19:41:47.178Z,21.40
2019-03-20T19:44:19.573Z,22.03
2019-03-20T19:46:53.310Z,19.37
2019-03-20T19:49:25.696Z,19.67
2019-03-20T19:51:57.655Z,31.40
2019-03-20T19:54:30.019Z,24.43
2019-03-20T19:57:02.083Z,18.07
2019-03-20T19:59:35.627Z,17.37
2019-03-20T20:02:08.157Z,20.50
2019-03-20T20:04:40.428Z,23.57
2019-03-20T20:07:12.499Z,18.73
2019-03-20T20:09:44.436Z,24.33
2019-03-20T20:12:18.951Z,23.67
2019-03-20T20:14:50.429Z,16.53
2019-03-20T20:17:22.401Z,18.10
2019-03-20T20:19:54.324Z,24.17
2019-03-20T20:22:26.724Z,22.40
2019-03-20T20:24:59.097Z,20.60
2019-03-20T20:27:31.917Z,21.30
2019-03-20T20:30:05.374Z,14.93
2019-03-20T20:32:37.749Z,18.30
2019-03-20T20:35:12.183Z,25.50
2019-03-20T20:37:45.886Z,12.37
2019-03-20T20:40:28.993Z,19.30
2019-03-20T20:43:01.372Z,21.40
2019-03-20T20:45:33.635Z,21.80
2019-03-20T20:48:05.848Z,26.07
2019-03-20T20:50:38.179Z,20.80
2019-03-20T20:53:10.554Z,22.43
2019-03-20T20:55:42.713Z,14.60
2019-03-20T20:58:15.099Z,15.83
2019-03-20T21:00:47.479Z,16.07
2019-03-20T21:03:19.839Z,21.30
2019-03-20T21:05:52.107Z,14.43
2019-03-20T21:08:24.484Z,19.83
2019-03-20T21:10:56.742Z,16.50
2019-03-20T21:13:29.116Z,17.20
2019-03-20T21:16:01.798Z,16.43
2019-03-20T21:19:10.311Z,14.70
2019-03-20T21:21:44.634Z,16.60
2019-03-20T21:24:25.608Z,14.97
2019-03-20T21:27:08.828Z,17.07
2019-03-20T21:30:07.010Z,21.03
2019-03-20T21:33:08.366Z,17.20
2019-03-20T21:36:07.870Z,18.13
2019-03-20T21:38:40.243Z,20.27
2019-03-20T21:41:29.005Z,20.57
2019-03-20T21:44:17.953Z,15.07
2019-03-20T21:47:00.769Z,16.53
2019-03-20T21:49:33.150Z,22.40
2019-03-20T21:52:05.410Z,14.70
2019-03-20T21:54:51.196Z,16.43
2019-03-20T21:57:31.089Z,23.63
2019-03-20T22:00:26.250Z,19.37
2019-03-20T22:02:58.630Z,19.67
2019-03-20T22:05:50.352Z,13.10
2019-03-20T22:08:22.730Z,18.10
2019-03-20T22:11:30.983Z,19.37
2019-03-20T22:14:12.712Z,14.67
2019-03-20T22:17:24.432Z,20.93
2019-03-20T22:20:04.169Z,20.70
2019-03-20T22:23:00.711Z,15.17
2019-03-20T22:25:50.597Z,17.53
2019-03-20T22:28:49.897Z,15.10
2019-03-20T22:31:23.292Z,14.07
2019-03-20T22:34:37.950Z,13.87
2019-03-20T22:37:10.322Z,15.40
2019-03-20T22:40:15.496Z,21.60
2019-03-20T22:43:09.814Z,18.47
2019-03-20T22:46:10.846Z,18.43
2019-03-20T22:49:11.097Z,16.67
2019-03-20T22:52:13.809Z,20.07
2019-03-20T22:55:13.614Z,15.73
2019-03-20T22:58:24.666Z,15.30
2019-03-20T23:01:02.301Z,15.10
2019-03-20T23:03:53.876Z,17.67
2019-03-20T23:06:26.185Z,19.97
2019-03-20T23:08:59.678Z,17.80
2019-03-20T23:11:31.619Z,23.27
2019-03-20T23:14:05.036Z,16.83
2019-03-20T23:16:36.974Z,16.83
2019-03-20T23:19:09.375Z,14.43
2019-03-20T23:21:42.675Z,19.80
2019-03-20T23:24:15.037Z,16.27
2019-03-20T23:26:46.973Z,14.13
2019-03-20T23:29:19.380Z,15.63
2019-03-20T23:31:51.310Z,20.40
2019-03-20T23:34:23.273Z,20.83
2019-03-20T23:36:55.568Z,20.10
2019-03-20T23:39:28.971Z,17.87
2019-03-20T23:42:01.534Z,18.83
2019-03-20T23:44:33.916Z,20.53
2019-03-20T23:47:07.319Z,17.67
2019-03-20T23:49:40.701Z,19.07
2019-03-20T23:52:13.180Z,13.33
2019-03-20T23:54:47.490Z,14.83
2019-03-20T23:57:21.343Z,15.90
2019-03-20T23:59:53.773Z,18.63
